Alba Rousing — OVIL2 — position and weather

sailwx.info

Track history (hours):
 
Tides and Currents Weather Stations Pressure Air Temp Water Temp Dewpoint Dewpoint Depression Visibility Wind Speed Wind Dir Waves Ship Positions

Alba Rousing

Last reported at 2018-Apr-22 19:48 UTC. Time now 2018-Apr-22 20:03 UTC.
Position N 53°34' E 014°34'.

Length 79 m; draft 2.6 m.

Type: Ship. MMSI: 220439000.

Date/timePositionNaut miles runAvg speedWind from/ knotsBaromVisibWave heightAir tempDewpointWater temp
2018-Apr-22 19:48N 53°34' E 014°34'0 0.0
2018-Apr-22 17:17N 53°34' E 014°34'1 2.4
2018-Apr-22 16:49N 53°35' E 014°35'2 6.3
2018-Apr-22 16:31N 53°37' E 014°35'4 8.8
2018-Apr-22 16:00N 53°41' E 014°31'5 9.2
2018-Apr-22 15:30N 53°44' E 014°26'75 7.7
2018-Apr-22 05:47N 54°37' E 015°57'88 8.6
2018-Apr-21 19:34N 54°57' E 018°26'1 8.2
2018-Apr-21 19:30N 54°57' E 018°27'4 8.3
2018-Apr-21 19:00N 54°57' E 018°34'4 7.9
2018-Apr-21 18:30N 54°56' E 018°41'4 8.3
2018-Apr-21 18:00N 54°53' E 018°46'4 8.4
2018-Apr-21 17:31N 54°50' E 018°52'4 8.4
2018-Apr-21 17:01N 54°48' E 018°57'4 8.1
2018-Apr-21 16:30N 54°44' E 019°01'4 8.9
2018-Apr-21 16:01N 54°40' E 018°58'5 9.1
2018-Apr-21 15:31N 54°36' E 018°54'5 9.0
2018-Apr-21 15:00N 54°33' E 018°49'4 8.6
2018-Apr-21 14:31N 54°32' E 018°42'5 9.2
2018-Apr-21 14:00N 54°32' E 018°34'2 3.3
2018-Apr-21 13:28N 54°32' E 018°31'0 0.0
2018-Apr-21 12:58N 54°32' E 018°31'0 0.0
2018-Apr-21 12:26N 54°32' E 018°31'0 0.0
2018-Apr-21 11:58N 54°32' E 018°31'0 0.0
2018-Apr-21 11:26N 54°32' E 018°31'0 0.0
2018-Apr-21 10:58N 54°32' E 018°31'0 0.0
2018-Apr-21 10:28N 54°32' E 018°31'0 0.0
2018-Apr-21 09:59N 54°32' E 018°31'0 0.0
2018-Apr-21 09:28N 54°32' E 018°31'0 0.0
2018-Apr-21 08:58N 54°32' E 018°31'0 0.0
2018-Apr-21 08:28N 54°32' E 018°31'0 0.0
2018-Apr-21 07:58N 54°32' E 018°31'0 0.0
2018-Apr-21 07:28N 54°32' E 018°31'0 0.0
2018-Apr-21 06:58N 54°32' E 018°31'0 0.0
2018-Apr-21 06:28N 54°32' E 018°31'0 0.0
2018-Apr-21 05:58N 54°32' E 018°31'0 0.0
2018-Apr-21 05:28N 54°32' E 018°31'0 0.0
2018-Apr-21 04:58N 54°32' E 018°31'0 0.0
2018-Apr-21 04:28N 54°32' E 018°31'0 0.0
2018-Apr-21 03:58N 54°32' E 018°31'0 0.0
2018-Apr-21 03:28N 54°32' E 018°31'0 0.0
2018-Apr-21 02:58N 54°32' E 018°31'0 0.0
2018-Apr-21 02:28N 54°32' E 018°31'0 0.0
2018-Apr-21 01:59N 54°32' E 018°31'0 0.0
2018-Apr-21 01:28N 54°32' E 018°31'0 0.0
2018-Apr-21 00:59N 54°32' E 018°31'0 0.0
2018-Apr-21 00:29N 54°32' E 018°31'0 0.0
2018-Apr-20 23:59N 54°32' E 018°31'0 0.0
2018-Apr-20 23:29N 54°32' E 018°31'0 0.0
2018-Apr-20 22:59N 54°32' E 018°31'0 0.0
2018-Apr-20 22:26N 54°32' E 018°31'0 0.0
2018-Apr-20 21:59N 54°32' E 018°31'0 0.0
2018-Apr-20 21:29N 54°32' E 018°31'0 0.0
2018-Apr-20 20:59N 54°32' E 018°31'0 0.0
2018-Apr-20 20:29N 54°32' E 018°31'0 0.0
2018-Apr-20 20:00N 54°32' E 018°31'0 0.0
2018-Apr-20 19:29N 54°32' E 018°31'0 0.0
2018-Apr-20 18:59N 54°32' E 018°31'0 0.0
2018-Apr-20 18:27N 54°32' E 018°31'0 0.0
2018-Apr-20 17:59N 54°32' E 018°31'0 0.0
2018-Apr-20 17:29N 54°32' E 018°31'1 1.4
2018-Apr-20 17:00N 54°32' E 018°32'4 7.6
2018-Apr-20 16:30N 54°31' E 018°38'4 7.9
2018-Apr-20 16:00N 54°28' E 018°42'3 6.8
2018-Apr-20 15:30N 54°24' E 018°40'2 4.6
2018-Apr-20 15:00N 54°22' E 018°40'0 0.0
2018-Apr-20 14:26N 54°22' E 018°40'0 0.0
2018-Apr-20 13:59N 54°22' E 018°40'0 0.0
2018-Apr-20 13:26N 54°22' E 018°40'0 0.0
2018-Apr-20 12:56N 54°22' E 018°40'0 0.0
2018-Apr-20 12:29N 54°22' E 018°40'0 0.0
2018-Apr-20 11:56N 54°22' E 018°40'0 0.0
2018-Apr-20 11:29N 54°22' E 018°40'0 0.0
2018-Apr-20 10:56N 54°22' E 018°40'0 0.0
2018-Apr-20 10:29N 54°22' E 018°40'0 0.0
2018-Apr-20 09:59N 54°22' E 018°40'0 0.0
2018-Apr-20 09:29N 54°22' E 018°40'0 0.0
2018-Apr-20 08:59N 54°22' E 018°40'0 0.0
2018-Apr-20 08:26N 54°22' E 018°40'0 0.0
2018-Apr-20 07:56N 54°22' E 018°40'0 0.0
2018-Apr-20 07:26N 54°22' E 018°40'0 0.0
2018-Apr-20 06:59N 54°22' E 018°40'0 0.0
2018-Apr-20 06:29N 54°22' E 018°40'0 0.0
2018-Apr-20 06:00N 54°22' E 018°40'1 1.1
2018-Apr-20 05:30N 54°23' E 018°40'2 4.9
2018-Apr-20 05:00N 54°25' E 018°39'3 5.9
2018-Apr-20 04:30N 54°28' E 018°41'2 3.7
2018-Apr-20 04:00N 54°29' E 018°43'3 5.8
2018-Apr-20 03:30N 54°31' E 018°47'3 5.9
2018-Apr-20 02:59N 54°34' E 018°50'3 6.7
2018-Apr-20 02:30N 54°36' E 018°53'4 8.7
2018-Apr-20 02:00N 54°40' E 018°56'4 8.3
2018-Apr-20 01:30N 54°44' E 018°58'4 7.6
2018-Apr-20 00:59N 54°48' E 018°54'4 8.8
2018-Apr-20 00:30N 54°50' E 018°49'4 8.8
2018-Apr-20 00:00N 54°53' E 018°42'4 8.8
2018-Apr-19 23:30N 54°55' E 018°36'4 8.7
2018-Apr-19 22:59N 54°55' E 018°28'4 8.8
2018-Apr-19 22:30N 54°55' E 018°21'5 8.9
2018-Apr-19 21:58N 54°54' E 018°12'4 8.8
2018-Apr-19 21:30N 54°54' E 018°05'5 8.8
2018-Apr-19 20:56N 54°54' E 017°57'4 8.7
2018-Apr-19 20:30N 54°54' E 017°50'12 8.7
2018-Apr-19 19:07N 54°53' E 017°29'1 8.7
2018-Apr-19 19:00N 54°53' E 017°28'80 8.6
2018-Apr-19 09:44N 54°57' E 015°09'2 8.8
2018-Apr-19 09:28N 54°57' E 015°05'4 8.9
2018-Apr-19 09:00N 54°57' E 014°57'4 8.9
2018-Apr-19 08:30N 54°57' E 014°50'4 8.9
2018-Apr-19 08:00N 54°57' E 014°42'4 8.9
2018-Apr-19 07:30N 54°57' E 014°34'4 8.7
2018-Apr-19 07:00N 54°57' E 014°27'16 8.7
2018-Apr-19 05:12N 54°60' E 013°60'46 8.8
2018-Apr-18 23:57N 55°16' E 012°44'4 8.6
2018-Apr-18 23:29N 55°18' E 012°38'4 8.5
2018-Apr-18 23:00N 55°23' E 012°38'4 8.8
2018-Apr-18 22:30N 55°27' E 012°40'5 9.3
2018-Apr-18 22:00N 55°31' E 012°42'510.1
2018-Apr-18 21:30N 55°36' E 012°42'5 9.8
2018-Apr-18 21:00N 55°41' E 012°41'5 9.2
2018-Apr-18 20:30N 55°46' E 012°42'4 8.8
2018-Apr-18 20:00N 55°50' E 012°41'4 8.6
2018-Apr-18 19:30N 55°54' E 012°39'5 9.5
2018-Apr-18 19:00N 55°59' E 012°38'5 9.3
2018-Apr-18 18:30N 56°04' E 012°38'23 7.5
2018-Apr-18 15:26N 56°02' E 011°57'5 8.2
2018-Apr-18 14:50N 55°58' E 011°50'3 6.0
2018-Apr-18 14:24N 55°55' E 011°51'3 8.2
2018-Apr-18 14:00N 55°57' E 011°57'3 4.9
2018-Apr-18 13:29N 55°58' E 012°01'0 0.0
2018-Apr-18 12:58N 55°58' E 012°01'0 0.0
2018-Apr-18 12:28N 55°58' E 012°01'0 0.0
2018-Apr-18 11:50N 55°58' E 012°01'0 0.0
2018-Apr-18 11:28N 55°58' E 012°01'0 0.0
2018-Apr-18 10:28N 55°58' E 012°01'0 0.0
2018-Apr-18 09:52N 55°58' E 012°01'0 0.0
2018-Apr-18 09:23N 55°58' E 012°01'0 0.0
2018-Apr-18 08:56N 55°58' E 012°01'0 0.0
2018-Apr-18 08:26N 55°58' E 012°01'0 0.0
2018-Apr-18 07:53N 55°58' E 012°01'0 0.0
2018-Apr-18 07:29N 55°58' E 012°01'0 0.0
2018-Apr-18 06:59N 55°58' E 012°01'0 0.0
2018-Apr-18 06:26N 55°58' E 012°01'  
2018-Apr-15 19:00N 56°05' E 012°37'4 7.9
2018-Apr-15 18:30N 56°01' E 012°41'4 7.4
2018-Apr-15 18:00N 55°58' E 012°42'4 7.2
2018-Apr-15 17:31N 55°54' E 012°44'4 7.2
2018-Apr-15 17:00N 55°51' E 012°44'4 7.3
2018-Apr-15 16:31N 55°47' E 012°42'4 7.2
2018-Apr-15 16:01N 55°44' E 012°42'4 7.2
2018-Apr-15 15:30N 55°40' E 012°42'4 7.2
2018-Apr-15 15:00N 55°37' E 012°42'4 7.2
2018-Apr-15 14:30N 55°33' E 012°43'3 7.1
2018-Apr-15 14:00N 55°29' E 012°43'4 7.4
2018-Apr-15 13:30N 55°26' E 012°42'4 7.5
2018-Apr-15 13:00N 55°22' E 012°41'3 6.9
2018-Apr-15 12:31N 55°19' E 012°41'4 7.5
2018-Apr-15 12:00N 55°15' E 012°40'4 7.4
2018-Apr-15 11:30N 55°11' E 012°41'117 8.2
2018-Apr-14 21:12N 53°35' E 014°36'2 8.7
2018-Apr-14 21:00N 53°33' E 014°36'4 7.8
2018-Apr-14 20:30N 53°29' E 014°37'0 0.1
2018-Apr-14 20:00N 53°29' E 014°37'0 0.0
2018-Apr-14 19:30N 53°29' E 014°37'0 0.0
2018-Apr-14 18:57N 53°29' E 014°37'0 0.0
2018-Apr-14 18:27N 53°29' E 014°37'0 0.0
2018-Apr-14 17:57N 53°29' E 014°37'0 0.0
2018-Apr-14 17:27N 53°29' E 014°37'0 0.0
2018-Apr-14 17:00N 53°29' E 014°37'0 0.0
2018-Apr-14 16:30N 53°29' E 014°37'0 0.0
2018-Apr-14 16:00N 53°29' E 014°37'0 0.0
2018-Apr-14 15:30N 53°29' E 014°37'0 0.0
2018-Apr-14 15:00N 53°29' E 014°37'0 0.0
2018-Apr-14 14:30N 53°29' E 014°37'0 0.0
2018-Apr-14 14:00N 53°29' E 014°37'0 0.0
2018-Apr-14 13:30N 53°29' E 014°37'0 0.0
2018-Apr-14 12:57N 53°29' E 014°37'0 0.0
2018-Apr-14 12:24N 53°29' E 014°37'0 0.0
2018-Apr-14 12:00N 53°29' E 014°37'0 0.0
2018-Apr-14 11:30N 53°29' E 014°37'0 0.0
2018-Apr-14 11:00N 53°29' E 014°37'0 0.0
2018-Apr-14 10:27N 53°29' E 014°37'0 0.0
2018-Apr-14 09:57N 53°29' E 014°37'0 0.0
2018-Apr-14 09:27N 53°29' E 014°37'0 0.0
2018-Apr-14 08:57N 53°29' E 014°37'0 0.0
2018-Apr-14 08:21N 53°29' E 014°37'0 0.0
2018-Apr-14 07:57N 53°29' E 014°37'0 0.0
2018-Apr-14 07:27N 53°29' E 014°37'0 0.0
2018-Apr-14 06:57N 53°29' E 014°37'0 0.0
2018-Apr-14 06:30N 53°29' E 014°37'0 0.0
2018-Apr-14 06:00N 53°29' E 014°37'0 0.0
2018-Apr-14 05:30N 53°29' E 014°37'0 0.0
2018-Apr-14 04:54N 53°29' E 014°37'0 0.0
2018-Apr-14 04:30N 53°29' E 014°37'0 0.0
2018-Apr-14 04:00N 53°29' E 014°37'0 0.0
2018-Apr-14 03:30N 53°29' E 014°37'0 0.0
2018-Apr-14 03:00N 53°29' E 014°37'0 0.0
2018-Apr-14 02:27N 53°29' E 014°37'0 0.0
2018-Apr-14 01:57N 53°29' E 014°37'0 0.0
2018-Apr-14 01:30N 53°29' E 014°37'0 0.0
2018-Apr-14 01:00N 53°29' E 014°37'0 0.0
2018-Apr-14 00:30N 53°29' E 014°37'0 0.0
2018-Apr-14 00:00N 53°29' E 014°37'0 0.0
2018-Apr-13 23:27N 53°29' E 014°37'0 0.0
2018-Apr-13 22:57N 53°29' E 014°37'0 0.0
2018-Apr-13 22:27N 53°29' E 014°37'0 0.0
2018-Apr-13 21:57N 53°29' E 014°37'0 0.0
2018-Apr-13 21:24N 53°29' E 014°37'0 0.0
2018-Apr-13 21:00N 53°29' E 014°37'0 0.0
2018-Apr-13 20:27N 53°29' E 014°37'0 0.0
2018-Apr-13 20:00N 53°29' E 014°37'0 0.0
2018-Apr-13 19:27N 53°29' E 014°37'0 0.0
2018-Apr-13 19:00N 53°29' E 014°37'0 0.0
2018-Apr-13 18:30N 53°29' E 014°37'0 0.0
2018-Apr-13 17:57N 53°29' E 014°37'0 0.0
2018-Apr-13 17:27N 53°29' E 014°37'0 0.0
2018-Apr-13 16:57N 53°29' E 014°37'0 0.0
2018-Apr-13 16:27N 53°29' E 014°37'0 0.0
2018-Apr-13 15:54N 53°29' E 014°37'0 0.0
2018-Apr-13 15:30N 53°29' E 014°37'0 0.0
2018-Apr-13 15:00N 53°29' E 014°37'0 0.0
2018-Apr-13 14:27N 53°29' E 014°37'0 0.0
2018-Apr-13 14:00N 53°29' E 014°37'0 0.0
2018-Apr-13 13:27N 53°29' E 014°37'0 0.0
2018-Apr-13 13:00N 53°29' E 014°37'0 0.0
2018-Apr-13 12:30N 53°29' E 014°37'0 0.0
2018-Apr-13 11:57N 53°29' E 014°37'0 0.0
2018-Apr-13 11:27N 53°29' E 014°37'0 0.0
2018-Apr-13 10:57N 53°29' E 014°37'0 0.0
2018-Apr-13 10:27N 53°29' E 014°37'0 0.0
2018-Apr-13 09:57N 53°29' E 014°37'0 0.0
2018-Apr-13 09:30N 53°29' E 014°37'0 0.0
2018-Apr-13 08:54N 53°29' E 014°37'0 0.0
2018-Apr-13 08:27N 53°29' E 014°37'0 0.0
2018-Apr-13 08:00N 53°29' E 014°37'0 0.0
2018-Apr-13 07:30N 53°29' E 014°37'0 0.0
2018-Apr-13 07:00N 53°29' E 014°37'0 0.0
2018-Apr-13 06:30N 53°29' E 014°37'0 0.0
2018-Apr-13 06:00N 53°29' E 014°37'0 0.0
2018-Apr-13 05:30N 53°29' E 014°37'0 0.0
2018-Apr-13 04:57N 53°29' E 014°37'0 0.0
2018-Apr-13 04:27N 53°29' E 014°37'0 0.0
2018-Apr-13 03:57N 53°29' E 014°37'0 0.0
2018-Apr-13 03:27N 53°29' E 014°37'0 0.0
2018-Apr-13 03:00N 53°29' E 014°37'0 0.0
2018-Apr-13 02:30N 53°29' E 014°37'0 0.0
2018-Apr-13 02:00N 53°29' E 014°37'0 0.0
2018-Apr-13 01:30N 53°29' E 014°37'0 0.0
2018-Apr-13 01:00N 53°29' E 014°37'0 0.0
2018-Apr-13 00:27N 53°29' E 014°37'0 0.9
2018-Apr-12 23:58N 53°30' E 014°37'4 7.9
2018-Apr-12 23:28N 53°34' E 014°36'5 8.6
2018-Apr-12 22:56N 53°38' E 014°34'  
Track history (hours):
 
Tides and Currents Weather Stations Pressure Air Temp Water Temp Dewpoint Dewpoint Depression Visibility Wind Speed Wind Dir Waves Ship Positions

Alba Rousing

Last reported at 2018-Apr-22 19:48 UTC. Time now 2018-Apr-22 20:03 UTC.
Position N 53°34' E 014°34'.

Length 79 m; draft 2.6 m.

Type: Ship. MMSI: 220439000.

Date/timePositionNaut miles runAvg speedWind from/ knotsBaromVisibWave heightAir tempDewpointWater temp
2018-Apr-22 19:48N 53°34' E 014°34'0 0.0
2018-Apr-22 17:17N 53°34' E 014°34'1 2.4
2018-Apr-22 16:49N 53°35' E 014°35'2 6.3
2018-Apr-22 16:31N 53°37' E 014°35'4 8.8
2018-Apr-22 16:00N 53°41' E 014°31'5 9.2
2018-Apr-22 15:30N 53°44' E 014°26'75 7.7
2018-Apr-22 05:47N 54°37' E 015°57'88 8.6
2018-Apr-21 19:34N 54°57' E 018°26'1 8.2
2018-Apr-21 19:30N 54°57' E 018°27'4 8.3
2018-Apr-21 19:00N 54°57' E 018°34'4 7.9
2018-Apr-21 18:30N 54°56' E 018°41'4 8.3
2018-Apr-21 18:00N 54°53' E 018°46'4 8.4
2018-Apr-21 17:31N 54°50' E 018°52'4 8.4
2018-Apr-21 17:01N 54°48' E 018°57'4 8.1
2018-Apr-21 16:30N 54°44' E 019°01'4 8.9
2018-Apr-21 16:01N 54°40' E 018°58'5 9.1
2018-Apr-21 15:31N 54°36' E 018°54'5 9.0
2018-Apr-21 15:00N 54°33' E 018°49'4 8.6
2018-Apr-21 14:31N 54°32' E 018°42'5 9.2
2018-Apr-21 14:00N 54°32' E 018°34'2 3.3
2018-Apr-21 13:28N 54°32' E 018°31'0 0.0
2018-Apr-21 12:58N 54°32' E 018°31'0 0.0
2018-Apr-21 12:26N 54°32' E 018°31'0 0.0
2018-Apr-21 11:58N 54°32' E 018°31'0 0.0
2018-Apr-21 11:26N 54°32' E 018°31'0 0.0
2018-Apr-21 10:58N 54°32' E 018°31'0 0.0
2018-Apr-21 10:28N 54°32' E 018°31'0 0.0
2018-Apr-21 09:59N 54°32' E 018°31'0 0.0
2018-Apr-21 09:28N 54°32' E 018°31'0 0.0
2018-Apr-21 08:58N 54°32' E 018°31'0 0.0
2018-Apr-21 08:28N 54°32' E 018°31'0 0.0
2018-Apr-21 07:58N 54°32' E 018°31'0 0.0
2018-Apr-21 07:28N 54°32' E 018°31'0 0.0
2018-Apr-21 06:58N 54°32' E 018°31'0 0.0
2018-Apr-21 06:28N 54°32' E 018°31'0 0.0
2018-Apr-21 05:58N 54°32' E 018°31'0 0.0
2018-Apr-21 05:28N 54°32' E 018°31'0 0.0
2018-Apr-21 04:58N 54°32' E 018°31'0 0.0
2018-Apr-21 04:28N 54°32' E 018°31'0 0.0
2018-Apr-21 03:58N 54°32' E 018°31'0 0.0
2018-Apr-21 03:28N 54°32' E 018°31'0 0.0
2018-Apr-21 02:58N 54°32' E 018°31'0 0.0
2018-Apr-21 02:28N 54°32' E 018°31'0 0.0
2018-Apr-21 01:59N 54°32' E 018°31'0 0.0
2018-Apr-21 01:28N 54°32' E 018°31'0 0.0
2018-Apr-21 00:59N 54°32' E 018°31'0 0.0
2018-Apr-21 00:29N 54°32' E 018°31'0 0.0
2018-Apr-20 23:59N 54°32' E 018°31'0 0.0
2018-Apr-20 23:29N 54°32' E 018°31'0 0.0
2018-Apr-20 22:59N 54°32' E 018°31'0 0.0
2018-Apr-20 22:26N 54°32' E 018°31'0 0.0
2018-Apr-20 21:59N 54°32' E 018°31'0 0.0
2018-Apr-20 21:29N 54°32' E 018°31'0 0.0
2018-Apr-20 20:59N 54°32' E 018°31'0 0.0
2018-Apr-20 20:29N 54°32' E 018°31'0 0.0
2018-Apr-20 20:00N 54°32' E 018°31'0 0.0
2018-Apr-20 19:29N 54°32' E 018°31'0 0.0
2018-Apr-20 18:59N 54°32' E 018°31'0 0.0
2018-Apr-20 18:27N 54°32' E 018°31'0 0.0
2018-Apr-20 17:59N 54°32' E 018°31'0 0.0
2018-Apr-20 17:29N 54°32' E 018°31'1 1.4
2018-Apr-20 17:00N 54°32' E 018°32'4 7.6
2018-Apr-20 16:30N 54°31' E 018°38'4 7.9
2018-Apr-20 16:00N 54°28' E 018°42'3 6.8
2018-Apr-20 15:30N 54°24' E 018°40'2 4.6
2018-Apr-20 15:00N 54°22' E 018°40'0 0.0
2018-Apr-20 14:26N 54°22' E 018°40'0 0.0
2018-Apr-20 13:59N 54°22' E 018°40'0 0.0
2018-Apr-20 13:26N 54°22' E 018°40'0 0.0
2018-Apr-20 12:56N 54°22' E 018°40'0 0.0
2018-Apr-20 12:29N 54°22' E 018°40'0 0.0
2018-Apr-20 11:56N 54°22' E 018°40'0 0.0
2018-Apr-20 11:29N 54°22' E 018°40'0 0.0
2018-Apr-20 10:56N 54°22' E 018°40'0 0.0
2018-Apr-20 10:29N 54°22' E 018°40'0 0.0
2018-Apr-20 09:59N 54°22' E 018°40'0 0.0
2018-Apr-20 09:29N 54°22' E 018°40'0 0.0
2018-Apr-20 08:59N 54°22' E 018°40'0 0.0
2018-Apr-20 08:26N 54°22' E 018°40'0 0.0
2018-Apr-20 07:56N 54°22' E 018°40'0 0.0
2018-Apr-20 07:26N 54°22' E 018°40'0 0.0
2018-Apr-20 06:59N 54°22' E 018°40'0 0.0
2018-Apr-20 06:29N 54°22' E 018°40'0 0.0
2018-Apr-20 06:00N 54°22' E 018°40'1 1.1
2018-Apr-20 05:30N 54°23' E 018°40'2 4.9
2018-Apr-20 05:00N 54°25' E 018°39'3 5.9
2018-Apr-20 04:30N 54°28' E 018°41'2 3.7
2018-Apr-20 04:00N 54°29' E 018°43'3 5.8
2018-Apr-20 03:30N 54°31' E 018°47'3 5.9
2018-Apr-20 02:59N 54°34' E 018°50'3 6.7
2018-Apr-20 02:30N 54°36' E 018°53'4 8.7
2018-Apr-20 02:00N 54°40' E 018°56'4 8.3
2018-Apr-20 01:30N 54°44' E 018°58'4 7.6
2018-Apr-20 00:59N 54°48' E 018°54'4 8.8
2018-Apr-20 00:30N 54°50' E 018°49'4 8.8
2018-Apr-20 00:00N 54°53' E 018°42'4 8.8
2018-Apr-19 23:30N 54°55' E 018°36'4 8.7
2018-Apr-19 22:59N 54°55' E 018°28'4 8.8
2018-Apr-19 22:30N 54°55' E 018°21'5 8.9
2018-Apr-19 21:58N 54°54' E 018°12'4 8.8
2018-Apr-19 21:30N 54°54' E 018°05'5 8.8
2018-Apr-19 20:56N 54°54' E 017°57'4 8.7
2018-Apr-19 20:30N 54°54' E 017°50'12 8.7
2018-Apr-19 19:07N 54°53' E 017°29'1 8.7
2018-Apr-19 19:00N 54°53' E 017°28'80 8.6
2018-Apr-19 09:44N 54°57' E 015°09'2 8.8
2018-Apr-19 09:28N 54°57' E 015°05'4 8.9
2018-Apr-19 09:00N 54°57' E 014°57'4 8.9
2018-Apr-19 08:30N 54°57' E 014°50'4 8.9
2018-Apr-19 08:00N 54°57' E 014°42'4 8.9
2018-Apr-19 07:30N 54°57' E 014°34'4 8.7
2018-Apr-19 07:00N 54°57' E 014°27'16 8.7
2018-Apr-19 05:12N 54°60' E 013°60'46 8.8
2018-Apr-18 23:57N 55°16' E 012°44'4 8.6
2018-Apr-18 23:29N 55°18' E 012°38'4 8.5
2018-Apr-18 23:00N 55°23' E 012°38'4 8.8
2018-Apr-18 22:30N 55°27' E 012°40'5 9.3
2018-Apr-18 22:00N 55°31' E 012°42'510.1
2018-Apr-18 21:30N 55°36' E 012°42'5 9.8
2018-Apr-18 21:00N 55°41' E 012°41'5 9.2
2018-Apr-18 20:30N 55°46' E 012°42'4 8.8
2018-Apr-18 20:00N 55°50' E 012°41'4 8.6
2018-Apr-18 19:30N 55°54' E 012°39'5 9.5
2018-Apr-18 19:00N 55°59' E 012°38'5 9.3
2018-Apr-18 18:30N 56°04' E 012°38'23 7.5
2018-Apr-18 15:26N 56°02' E 011°57'5 8.2
2018-Apr-18 14:50N 55°58' E 011°50'3 6.0
2018-Apr-18 14:24N 55°55' E 011°51'3 8.2
2018-Apr-18 14:00N 55°57' E 011°57'3 4.9
2018-Apr-18 13:29N 55°58' E 012°01'0 0.0
2018-Apr-18 12:58N 55°58' E 012°01'0 0.0
2018-Apr-18 12:28N 55°58' E 012°01'0 0.0
2018-Apr-18 11:50N 55°58' E 012°01'0 0.0
2018-Apr-18 11:28N 55°58' E 012°01'0 0.0
2018-Apr-18 10:28N 55°58' E 012°01'0 0.0
2018-Apr-18 09:52N 55°58' E 012°01'0 0.0
2018-Apr-18 09:23N 55°58' E 012°01'0 0.0
2018-Apr-18 08:56N 55°58' E 012°01'0 0.0
2018-Apr-18 08:26N 55°58' E 012°01'0 0.0
2018-Apr-18 07:53N 55°58' E 012°01'0 0.0
2018-Apr-18 07:29N 55°58' E 012°01'0 0.0
2018-Apr-18 06:59N 55°58' E 012°01'0 0.0
2018-Apr-18 06:26N 55°58' E 012°01'  
2018-Apr-15 19:00N 56°05' E 012°37'4 7.9
2018-Apr-15 18:30N 56°01' E 012°41'4 7.4
2018-Apr-15 18:00N 55°58' E 012°42'4 7.2
2018-Apr-15 17:31N 55°54' E 012°44'4 7.2
2018-Apr-15 17:00N 55°51' E 012°44'4 7.3
2018-Apr-15 16:31N 55°47' E 012°42'4 7.2
2018-Apr-15 16:01N 55°44' E 012°42'4 7.2
2018-Apr-15 15:30N 55°40' E 012°42'4 7.2
2018-Apr-15 15:00N 55°37' E 012°42'4 7.2
2018-Apr-15 14:30N 55°33' E 012°43'3 7.1
2018-Apr-15 14:00N 55°29' E 012°43'4 7.4
2018-Apr-15 13:30N 55°26' E 012°42'4 7.5
2018-Apr-15 13:00N 55°22' E 012°41'3 6.9
2018-Apr-15 12:31N 55°19' E 012°41'4 7.5
2018-Apr-15 12:00N 55°15' E 012°40'4 7.4
2018-Apr-15 11:30N 55°11' E 012°41'117 8.2
2018-Apr-14 21:12N 53°35' E 014°36'2 8.7
2018-Apr-14 21:00N 53°33' E 014°36'4 7.8
2018-Apr-14 20:30N 53°29' E 014°37'0 0.1
2018-Apr-14 20:00N 53°29' E 014°37'0 0.0
2018-Apr-14 19:30N 53°29' E 014°37'0 0.0
2018-Apr-14 18:57N 53°29' E 014°37'0 0.0
2018-Apr-14 18:27N 53°29' E 014°37'0 0.0
2018-Apr-14 17:57N 53°29' E 014°37'0 0.0
2018-Apr-14 17:27N 53°29' E 014°37'0 0.0
2018-Apr-14 17:00N 53°29' E 014°37'0 0.0
2018-Apr-14 16:30N 53°29' E 014°37'0 0.0
2018-Apr-14 16:00N 53°29' E 014°37'0 0.0
2018-Apr-14 15:30N 53°29' E 014°37'0 0.0
2018-Apr-14 15:00N 53°29' E 014°37'0 0.0
2018-Apr-14 14:30N 53°29' E 014°37'0 0.0
2018-Apr-14 14:00N 53°29' E 014°37'0 0.0
2018-Apr-14 13:30N 53°29' E 014°37'0 0.0
2018-Apr-14 12:57N 53°29' E 014°37'0 0.0
2018-Apr-14 12:24N 53°29' E 014°37'0 0.0
2018-Apr-14 12:00N 53°29' E 014°37'0 0.0
2018-Apr-14 11:30N 53°29' E 014°37'0 0.0
2018-Apr-14 11:00N 53°29' E 014°37'0 0.0
2018-Apr-14 10:27N 53°29' E 014°37'0 0.0
2018-Apr-14 09:57N 53°29' E 014°37'0 0.0
2018-Apr-14 09:27N 53°29' E 014°37'0 0.0
2018-Apr-14 08:57N 53°29' E 014°37'0 0.0
2018-Apr-14 08:21N 53°29' E 014°37'0 0.0
2018-Apr-14 07:57N 53°29' E 014°37'0 0.0
2018-Apr-14 07:27N 53°29' E 014°37'0 0.0
2018-Apr-14 06:57N 53°29' E 014°37'0 0.0
2018-Apr-14 06:30N 53°29' E 014°37'0 0.0
2018-Apr-14 06:00N 53°29' E 014°37'0 0.0
2018-Apr-14 05:30N 53°29' E 014°37'0 0.0
2018-Apr-14 04:54N 53°29' E 014°37'0 0.0
2018-Apr-14 04:30N 53°29' E 014°37'0 0.0
2018-Apr-14 04:00N 53°29' E 014°37'0 0.0
2018-Apr-14 03:30N 53°29' E 014°37'0 0.0
2018-Apr-14 03:00N 53°29' E 014°37'0 0.0
2018-Apr-14 02:27N 53°29' E 014°37'0 0.0
2018-Apr-14 01:57N 53°29' E 014°37'0 0.0
2018-Apr-14 01:30N 53°29' E 014°37'0 0.0
2018-Apr-14 01:00N 53°29' E 014°37'0 0.0
2018-Apr-14 00:30N 53°29' E 014°37'0 0.0
2018-Apr-14 00:00N 53°29' E 014°37'0 0.0
2018-Apr-13 23:27N 53°29' E 014°37'0 0.0
2018-Apr-13 22:57N 53°29' E 014°37'0 0.0
2018-Apr-13 22:27N 53°29' E 014°37'0 0.0
2018-Apr-13 21:57N 53°29' E 014°37'0 0.0
2018-Apr-13 21:24N 53°29' E 014°37'0 0.0
2018-Apr-13 21:00N 53°29' E 014°37'0 0.0
2018-Apr-13 20:27N 53°29' E 014°37'0 0.0
2018-Apr-13 20:00N 53°29' E 014°37'0 0.0
2018-Apr-13 19:27N 53°29' E 014°37'0 0.0
2018-Apr-13 19:00N 53°29' E 014°37'0 0.0
2018-Apr-13 18:30N 53°29' E 014°37'0 0.0
2018-Apr-13 17:57N 53°29' E 014°37'0 0.0
2018-Apr-13 17:27N 53°29' E 014°37'0 0.0
2018-Apr-13 16:57N 53°29' E 014°37'0 0.0
2018-Apr-13 16:27N 53°29' E 014°37'0 0.0
2018-Apr-13 15:54N 53°29' E 014°37'0 0.0
2018-Apr-13 15:30N 53°29' E 014°37'0 0.0
2018-Apr-13 15:00N 53°29' E 014°37'0 0.0
2018-Apr-13 14:27N 53°29' E 014°37'0 0.0
2018-Apr-13 14:00N 53°29' E 014°37'0 0.0
2018-Apr-13 13:27N 53°29' E 014°37'0 0.0
2018-Apr-13 13:00N 53°29' E 014°37'0 0.0
2018-Apr-13 12:30N 53°29' E 014°37'0 0.0
2018-Apr-13 11:57N 53°29' E 014°37'0 0.0
2018-Apr-13 11:27N 53°29' E 014°37'0 0.0
2018-Apr-13 10:57N 53°29' E 014°37'0 0.0
2018-Apr-13 10:27N 53°29' E 014°37'0 0.0
2018-Apr-13 09:57N 53°29' E 014°37'0 0.0
2018-Apr-13 09:30N 53°29' E 014°37'0 0.0
2018-Apr-13 08:54N 53°29' E 014°37'0 0.0
2018-Apr-13 08:27N 53°29' E 014°37'0 0.0
2018-Apr-13 08:00N 53°29' E 014°37'0 0.0
2018-Apr-13 07:30N 53°29' E 014°37'0 0.0
2018-Apr-13 07:00N 53°29' E 014°37'0 0.0
2018-Apr-13 06:30N 53°29' E 014°37'0 0.0
2018-Apr-13 06:00N 53°29' E 014°37'0 0.0
2018-Apr-13 05:30N 53°29' E 014°37'0 0.0
2018-Apr-13 04:57N 53°29' E 014°37'0 0.0
2018-Apr-13 04:27N 53°29' E 014°37'0 0.0
2018-Apr-13 03:57N 53°29' E 014°37'0 0.0
2018-Apr-13 03:27N 53°29' E 014°37'0 0.0
2018-Apr-13 03:00N 53°29' E 014°37'0 0.0
2018-Apr-13 02:30N 53°29' E 014°37'0 0.0
2018-Apr-13 02:00N 53°29' E 014°37'0 0.0
2018-Apr-13 01:30N 53°29' E 014°37'0 0.0
2018-Apr-13 01:00N 53°29' E 014°37'0 0.0
2018-Apr-13 00:27N 53°29' E 014°37'0 0.9
2018-Apr-12 23:58N 53°30' E 014°37'4 7.9
2018-Apr-12 23:28N 53°34' E 014°36'5 8.6
2018-Apr-12 22:56N 53°38' E 014°34'  

Dump ship's entire track history